sensor_id;sensor_type;location;lat;lon;timestamp;pressure;altitude;pressure_sealevel;temperature;humidity
60820;BME280;46641;48.904;9.126;2023-01-08T00:02:30;98053.91;;;12.93;64.99
60820;BME280;46641;48.904;9.126;2023-01-08T00:07:20;98022.59;;;12.91;65.28
60820;BME280;46641;48.904;9.126;2023-01-08T00:12:11;98022.75;;;12.90;65.26
60820;BME280;46641;48.904;9.126;2023-01-08T00:17:01;98021.94;;;12.89;65.37
60820;BME280;46641;48.904;9.126;2023-01-08T00:21:53;98019.50;;;12.88;65.32
60820;BME280;46641;48.904;9.126;2023-01-08T00:26:43;98028.34;;;12.86;65.08
60820;BME280;46641;48.904;9.126;2023-01-08T00:31:34;98021.66;;;12.84;65.37
60820;BME280;46641;48.904;9.126;2023-01-08T00:36:24;98013.31;;;12.80;65.50
60820;BME280;46641;48.904;9.126;2023-01-08T00:41:15;97992.31;;;12.80;65.10
60820;BME280;46641;48.904;9.126;2023-01-08T00:46:06;97996.91;;;12.78;65.45
60820;BME280;46641;48.904;9.126;2023-01-08T00:50:57;97978.53;;;12.78;65.15
60820;BME280;46641;48.904;9.126;2023-01-08T00:55:47;97989.84;;;12.79;65.70
60820;BME280;46641;48.904;9.126;2023-01-08T01:00:37;97982.97;;;12.78;65.64
60820;BME280;46641;48.904;9.126;2023-01-08T01:05:28;97981.31;;;12.77;65.53
60820;BME280;46641;48.904;9.126;2023-01-08T01:10:18;97964.13;;;12.74;65.59
60820;BME280;46641;48.904;9.126;2023-01-08T01:15:11;97964.28;;;12.73;65.31
60820;BME280;46641;48.904;9.126;2023-01-08T01:20:02;97967.53;;;12.75;65.33
60820;BME280;46641;48.904;9.126;2023-01-08T01:24:53;97958.22;;;12.72;65.51
60820;BME280;46641;48.904;9.126;2023-01-08T01:29:43;97967.09;;;12.71;65.72
60820;BME280;46641;48.904;9.126;2023-01-08T01:34:33;97948.88;;;12.70;65.87
60820;BME280;46641;48.904;9.126;2023-01-08T01:39:24;97961.19;;;12.69;65.72
60820;BME280;46641;48.904;9.126;2023-01-08T01:44:45;97970.22;;;12.67;64.88
60820;BME280;46641;48.904;9.126;2023-01-08T01:49:37;97972.03;;;12.66;65.46
60820;BME280;46641;48.904;9.126;2023-01-08T01:54:29;97979.91;;;12.66;65.49
60820;BME280;46641;48.904;9.126;2023-01-08T01:59:20;97967.78;;;12.65;65.74
60820;BME280;46641;48.904;9.126;2023-01-08T02:04:12;97961.06;;;12.62;65.25
60820;BME280;46641;48.904;9.126;2023-01-08T02:09:15;97949.56;;;12.63;64.88
60820;BME280;46641;48.904;9.126;2023-01-08T02:14:15;97944.50;;;12.62;65.16
60820;BME280;46641;48.904;9.126;2023-01-08T02:19:18;97953.53;;;12.59;64.61
60820;BME280;46641;48.904;9.126;2023-01-08T02:24:20;97924.66;;;12.59;65.14
60820;BME280;46641;48.904;9.126;2023-01-08T02:29:19;97916.97;;;12.58;65.19
60820;BME280;46641;48.904;9.126;2023-01-08T02:34:11;97904.19;;;12.55;66.08
60820;BME280;46641;48.904;9.126;2023-01-08T02:39:28;97901.56;;;12.55;65.33
60820;BME280;46641;48.904;9.126;2023-01-08T02:44:30;97885.16;;;12.53;65.49
60820;BME280;46641;48.904;9.126;2023-01-08T02:49:27;97880.72;;;12.53;65.77
60820;BME280;46641;48.904;9.126;2023-01-08T02:54:23;97872.22;;;12.51;65.22
60820;BME280;46641;48.904;9.126;2023-01-08T02:59:17;97861.34;;;12.54;65.43
60820;BME280;46641;48.904;9.126;2023-01-08T03:04:13;97864.97;;;12.53;65.57
60820;BME280;46641;48.904;9.126;2023-01-08T03:09:05;97863.34;;;12.52;65.67
60820;BME280;46641;48.904;9.126;2023-01-08T03:14:13;97863.69;;;12.49;65.76
60820;BME280;46641;48.904;9.126;2023-01-08T03:19:11;97852.56;;;12.47;66.18
60820;BME280;46641;48.904;9.126;2023-01-08T03:24:02;97846.69;;;12.45;65.99
60820;BME280;46641;48.904;9.126;2023-01-08T03:28:55;97842.06;;;12.47;65.98
60820;BME280;46641;48.904;9.126;2023-01-08T03:33:46;97837.63;;;12.48;66.09
60820;BME280;46641;48.904;9.126;2023-01-08T03:38:39;97839.44;;;12.47;66.22
60820;BME280;46641;48.904;9.126;2023-01-08T03:43:31;97824.88;;;12.45;66.24
60820;BME280;46641;48.904;9.126;2023-01-08T03:48:22;97823.22;;;12.44;66.27
60820;BME280;46641;48.904;9.126;2023-01-08T03:53:14;97813.53;;;12.44;66.11
60820;BME280;46641;48.904;9.126;2023-01-08T03:58:05;97813.53;;;12.44;66.17
60820;BME280;46641;48.904;9.126;2023-01-08T04:02:55;97811.91;;;12.43;66.30
60820;BME280;46641;48.904;9.126;2023-01-08T04:07:45;97805.84;;;12.43;66.57
60820;BME280;46641;48.904;9.126;2023-01-08T04:12:35;97802.56;;;12.40;66.75
60820;BME280;46641;48.904;9.126;2023-01-08T04:17:26;97795.69;;;12.39;66.96
60820;BME280;46641;48.904;9.126;2023-01-08T04:22:16;97792.88;;;12.41;67.05
60820;BME280;46641;48.904;9.126;2023-01-08T04:27:06;97783.41;;;12.40;66.72
60820;BME280;46641;48.904;9.126;2023-01-08T04:31:57;97795.25;;;12.36;66.95
60820;BME280;46641;48.904;9.126;2023-01-08T04:36:47;97802.56;;;12.40;66.92
60820;BME280;46641;48.904;9.126;2023-01-08T04:41:37;97817.50;;;12.40;66.94
60820;BME280;46641;48.904;9.126;2023-01-08T04:46:27;97818.50;;;12.39;67.23
60820;BME280;46641;48.904;9.126;2023-01-08T04:51:18;97815.88;;;12.39;66.99
60820;BME280;46641;48.904;9.126;2023-01-08T04:56:09;97826.38;;;12.39;67.24
60820;BME280;46641;48.904;9.126;2023-01-08T05:01:00;97820.47;;;12.37;67.31
60820;BME280;46641;48.904;9.126;2023-01-08T05:05:59;97815.88;;;12.39;67.13
60820;BME280;46641;48.904;9.126;2023-01-08T05:10:49;97819.31;;;12.39;66.97
60820;BME280;46641;48.904;9.126;2023-01-08T05:15:40;97836.88;;;12.39;67.26
60820;BME280;46641;48.904;9.126;2023-01-08T05:20:33;97836.88;;;12.39;67.31
60820;BME280;46641;48.904;9.126;2023-01-08T05:25:24;97843.09;;;12.38;67.47
60820;BME280;46641;48.904;9.126;2023-01-08T05:30:15;97842.13;;;12.39;67.12
60820;BME280;46641;48.904;9.126;2023-01-08T05:35:06;97826.19;;;12.40;67.21
60820;BME280;46641;48.904;9.126;2023-01-08T05:39:56;97831.28;;;12.42;67.14
60820;BME280;46641;48.904;9.126;2023-01-08T05:44:46;97819.78;;;12.43;67.08
60820;BME280;46641;48.904;9.126;2023-01-08T05:49:37;97827.31;;;12.46;67.34
60820;BME280;46641;48.904;9.126;2023-01-08T05:54:27;97834.53;;;12.44;67.33
60820;BME280;46641;48.904;9.126;2023-01-08T05:59:17;97833.38;;;12.47;67.45
60820;BME280;46641;48.904;9.126;2023-01-08T06:04:07;97830.94;;;12.45;67.25
60820;BME280;46641;48.904;9.126;2023-01-08T06:08:58;97827.50;;;12.45;67.30
60820;BME280;46641;48.904;9.126;2023-01-08T06:13:48;97835.00;;;12.48;67.12
60820;BME280;46641;48.904;9.126;2023-01-08T06:18:38;97810.41;;;12.49;67.17
60820;BME280;46641;48.904;9.126;2023-01-08T06:23:29;97814.09;;;12.54;67.15
60820;BME280;46641;48.904;9.126;2023-01-08T06:28:20;97817.38;;;12.56;67.18
60820;BME280;46641;48.904;9.126;2023-01-08T06:33:10;97802.09;;;12.60;66.97
60820;BME280;46641;48.904;9.126;2023-01-08T06:38:00;97802.91;;;12.60;66.89
60820;BME280;46641;48.904;9.126;2023-01-08T06:42:51;97807.06;;;12.55;67.42
60820;BME280;46641;48.904;9.126;2023-01-08T06:47:41;97795.38;;;12.57;67.37
60820;BME280;46641;48.904;9.126;2023-01-08T06:52:31;97813.13;;;12.55;67.45
60820;BME280;46641;48.904;9.126;2023-01-08T06:57:22;97804.09;;;12.58;67.45
60820;BME280;46641;48.904;9.126;2023-01-08T07:02:13;97803.91;;;12.59;67.52
60820;BME280;46641;48.904;9.126;2023-01-08T07:07:03;97804.56;;;12.61;66.95
60820;BME280;46641;48.904;9.126;2023-01-08T07:11:54;97797.28;;;12.63;67.23
60820;BME280;46641;48.904;9.126;2023-01-08T07:16:44;97803.00;;;12.67;66.90
60820;BME280;46641;48.904;9.126;2023-01-08T07:21:34;97798.59;;;12.68;66.96
60820;BME280;46641;48.904;9.126;2023-01-08T07:26:25;97807.28;;;12.68;67.03
60820;BME280;46641;48.904;9.126;2023-01-08T07:31:15;97802.84;;;12.69;67.35
60820;BME280;46641;48.904;9.126;2023-01-08T07:36:06;97795.63;;;12.71;67.02
60820;BME280;46641;48.904;9.126;2023-01-08T07:40:57;97807.53;;;12.73;67.09
60820;BME280;46641;48.904;9.126;2023-01-08T07:45:48;97806.38;;;12.76;66.95
60820;BME280;46641;48.904;9.126;2023-01-08T07:50:38;97807.03;;;12.78;66.94
60820;BME280;46641;48.904;9.126;2023-01-08T07:55:30;97799.97;;;12.78;67.20
60820;BME280;46641;48.904;9.126;2023-01-08T08:00:20;97803.59;;;12.77;67.11
60820;BME280;46641;48.904;9.126;2023-01-08T08:05:11;97804.03;;;12.81;67.00
60820;BME280;46641;48.904;9.126;2023-01-08T08:10:03;97794.16;;;12.83;67.19
60820;BME280;46641;48.904;9.126;2023-01-08T08:14:53;97792.81;;;12.87;66.96
60820;BME280;46641;48.904;9.126;2023-01-08T08:19:44;97790.19;;;12.87;66.85
60820;BME280;46641;48.904;9.126;2023-01-08T08:24:34;97788.84;;;12.91;66.70
60820;BME280;46641;48.904;9.126;2023-01-08T08:29:24;97788.47;;;12.94;66.70
60820;BME280;46641;48.904;9.126;2023-01-08T08:34:15;97791.09;;;12.94;66.58
60820;BME280;46641;48.904;9.126;2023-01-08T08:39:05;97784.84;;;12.95;66.78
60820;BME280;46641;48.904;9.126;2023-01-08T08:43:55;97779.59;;;12.95;66.67
60820;BME280;46641;48.904;9.126;2023-01-08T08:48:46;97771.91;;;12.94;66.86
60820;BME280;46641;48.904;9.126;2023-01-08T08:53:37;97774.19;;;12.97;66.73
60820;BME280;46641;48.904;9.126;2023-01-08T08:58:27;97765.47;;;12.96;66.98
60820;BME280;46641;48.904;9.126;2023-01-08T09:03:17;97754.59;;;12.99;66.75
60820;BME280;46641;48.904;9.126;2023-01-08T09:08:08;97762.66;;;12.98;66.92
60820;BME280;46641;48.904;9.126;2023-01-08T09:12:59;97762.31;;;13.01;66.85
60820;BME280;46641;48.904;9.126;2023-01-08T09:17:56;97752.97;;;12.98;66.50
60820;BME280;46641;48.904;9.126;2023-01-08T09:22:46;97759.47;;;13.02;66.75
60820;BME280;46641;48.904;9.126;2023-01-08T09:27:36;97766.75;;;13.00;66.92
60820;BME280;46641;48.904;9.126;2023-01-08T09:32:27;97762.09;;;13.02;66.87
60820;BME280;46641;48.904;9.126;2023-01-08T09:37:17;97761.13;;;13.03;66.58
60820;BME280;46641;48.904;9.126;2023-01-08T09:42:10;97767.19;;;13.04;66.57
60820;BME280;46641;48.904;9.126;2023-01-08T09:47:03;97760.31;;;12.35;65.51
60820;BME280;46641;48.904;9.126;2023-01-08T09:51:54;97767.84;;;12.53;65.79
60820;BME280;46641;48.904;9.126;2023-01-08T09:56:45;97761.19;;;12.66;64.98
60820;BME280;46641;48.904;9.126;2023-01-08T10:01:37;97768.44;;;12.78;65.26
60820;BME280;46641;48.904;9.126;2023-01-08T10:06:28;97765.72;;;12.86;65.03
60820;BME280;46641;48.904;9.126;2023-01-08T10:11:20;97774.53;;;12.94;64.68
60820;BME280;46641;48.904;9.126;2023-01-08T10:16:19;97772.34;;;12.97;64.92
60820;BME280;46641;48.904;9.126;2023-01-08T10:21:15;97767.09;;;12.97;65.00
60820;BME280;46641;48.904;9.126;2023-01-08T10:26:06;97769.53;;;12.99;65.20
60820;BME280;46641;48.904;9.126;2023-01-08T10:31:05;97766.09;;;12.98;65.13
60820;BME280;46641;48.904;9.126;2023-01-08T10:36:05;97751.59;;;13.02;65.11
60820;BME280;46641;48.904;9.126;2023-01-08T10:40:57;97746.34;;;13.02;65.69
60820;BME280;46641;48.904;9.126;2023-01-08T10:45:56;97739.75;;;13.06;65.67
60820;BME280;46641;48.904;9.126;2023-01-08T10:50:47;97746.28;;;13.10;65.49
60820;BME280;46641;48.904;9.126;2023-01-08T10:55:38;97732.94;;;13.12;65.67
60820;BME280;46641;48.904;9.126;2023-01-08T11:00:32;97735.41;;;13.14;65.59
60820;BME280;46641;48.904;9.126;2023-01-08T11:05:39;97723.72;;;13.16;65.63
60820;BME280;46641;48.904;9.126;2023-01-08T11:10:32;97722.06;;;13.15;65.93
60820;BME280;46641;48.904;9.126;2023-01-08T11:15:32;97717.44;;;13.17;65.83
60820;BME280;46641;48.904;9.126;2023-01-08T11:20:28;97718.63;;;13.15;64.36
60820;BME280;46641;48.904;9.126;2023-01-08T11:25:25;97692.63;;;13.20;64.10
60820;BME280;46641;48.904;9.126;2023-01-08T11:30:18;97697.03;;;13.19;64.44
60820;BME280;46641;48.904;9.126;2023-01-08T11:35:16;97691.63;;;13.21;64.81
60820;BME280;46641;48.904;9.126;2023-01-08T11:40:23;97678.47;;;13.21;64.72
60820;BME280;46641;48.904;9.126;2023-01-08T11:45:22;97668.88;;;13.28;64.96
60820;BME280;46641;48.904;9.126;2023-01-08T11:50:24;97655.38;;;13.31;64.75
60820;BME280;46641;48.904;9.126;2023-01-08T12:00:37;97632.81;;;13.37;65.01
60820;BME280;46641;48.904;9.126;2023-01-08T12:05:48;97633.88;;;13.42;65.08
60820;BME280;46641;48.904;9.126;2023-01-08T12:26:19;97612.97;;;13.55;64.88
60820;BME280;46641;48.904;9.126;2023-01-08T12:36:26;97592.81;;;13.63;64.98
60820;BME280;46641;48.904;9.126;2023-01-08T12:41:19;97600.50;;;13.64;65.02
60820;BME280;46641;48.904;9.126;2023-01-08T12:46:12;97609.44;;;13.70;64.63
60820;BME280;46641;48.904;9.126;2023-01-08T13:01:48;97590.66;;;13.73;64.75
60820;BME280;46641;48.904;9.126;2023-01-08T13:06:51;97600.00;;;13.75;64.71
60820;BME280;46641;48.904;9.126;2023-01-08T13:11:50;97583.03;;;13.78;65.00
60820;BME280;46641;48.904;9.126;2023-01-08T13:16:44;97573.31;;;13.78;65.16
60820;BME280;46641;48.904;9.126;2023-01-08T13:21:42;97565.59;;;13.77;65.19
60820;BME280;46641;48.904;9.126;2023-01-08T13:26:35;97562.59;;;13.80;65.17
60820;BME280;46641;48.904;9.126;2023-01-08T13:31:26;97557.34;;;13.80;65.24
60820;BME280;46641;48.904;9.126;2023-01-08T13:41:27;97548.69;;;13.86;65.03
60820;BME280;46641;48.904;9.126;2023-01-08T13:46:18;97525.63;;;13.88;65.18
60820;BME280;46641;48.904;9.126;2023-01-08T13:51:37;97527.25;;;13.89;64.76
60820;BME280;46641;48.904;9.126;2023-01-08T13:56:29;97527.03;;;13.91;65.39
60820;BME280;46641;48.904;9.126;2023-01-08T14:01:21;97523.22;;;13.93;64.76
60820;BME280;46641;48.904;9.126;2023-01-08T14:11:08;97510.50;;;13.97;64.88
60820;BME280;46641;48.904;9.126;2023-01-08T14:16:03;97513.75;;;13.99;64.65
60820;BME280;46641;48.904;9.126;2023-01-08T14:20:55;97507.47;;;14.00;65.15
60820;BME280;46641;48.904;9.126;2023-01-08T14:25:48;97495.13;;;14.00;65.00
60820;BME280;46641;48.904;9.126;2023-01-08T14:30:46;97493.13;;;14.02;64.56
60820;BME280;46641;48.904;9.126;2023-01-08T14:35:37;97500.00;;;14.03;65.42
60820;BME280;46641;48.904;9.126;2023-01-08T14:40:41;97499.63;;;14.07;65.01
60820;BME280;46641;48.904;9.126;2023-01-08T14:45:32;97488.69;;;14.03;65.16
60820;BME280;46641;48.904;9.126;2023-01-08T14:50:38;97473.50;;;14.05;65.00
60820;BME280;46641;48.904;9.126;2023-01-08T14:55:31;97476.97;;;14.06;65.02
60820;BME280;46641;48.904;9.126;2023-01-08T15:00:25;97465.41;;;14.07;64.95
60820;BME280;46641;48.904;9.126;2023-01-08T15:05:28;97466.03;;;14.09;64.82
60820;BME280;46641;48.904;9.126;2023-01-08T15:10:35;97448.25;;;14.11;64.51
60820;BME280;46641;48.904;9.126;2023-01-08T15:15:26;97454.31;;;14.11;64.84
60820;BME280;46641;48.904;9.126;2023-01-08T15:20:18;97438.16;;;14.14;64.72
60820;BME280;46641;48.904;9.126;2023-01-08T15:25:20;97434.28;;;14.17;64.54
60820;BME280;46641;48.904;9.126;2023-01-08T15:30:32;97423.75;;;14.17;64.29
60820;BME280;46641;48.904;9.126;2023-01-08T15:35:23;97429.66;;;14.19;65.01
60820;BME280;46641;48.904;9.126;2023-01-08T15:40:14;97420.31;;;14.16;64.79
60820;BME280;46641;48.904;9.126;2023-01-08T15:45:13;97425.19;;;14.19;64.46
60820;BME280;46641;48.904;9.126;2023-01-08T15:50:04;97425.00;;;14.21;64.71
60820;BME280;46641;48.904;9.126;2023-01-08T15:54:57;97410.84;;;14.22;64.43
60820;BME280;46641;48.904;9.126;2023-01-08T15:59:48;97405.38;;;14.23;64.67
60820;BME280;46641;48.904;9.126;2023-01-08T16:04:38;97405.19;;;14.25;64.62
60820;BME280;46641;48.904;9.126;2023-01-08T16:09:29;97400.94;;;14.24;64.59
60820;BME280;46641;48.904;9.126;2023-01-08T16:14:19;97407.81;;;14.25;64.60
60820;BME280;46641;48.904;9.126;2023-01-08T16:19:09;97404.38;;;14.24;64.66
60820;BME280;46641;48.904;9.126;2023-01-08T16:24:00;97393.22;;;14.22;64.71
60820;BME280;46641;48.904;9.126;2023-01-08T16:28:50;97379.47;;;14.20;64.82
60820;BME280;46641;48.904;9.126;2023-01-08T16:33:40;97365.69;;;14.18;64.62
60820;BME280;46641;48.904;9.126;2023-01-08T16:38:31;97363.19;;;14.03;64.88
60820;BME280;46641;48.904;9.126;2023-01-08T16:43:22;97351.50;;;14.13;64.41
60820;BME280;46641;48.904;9.126;2023-01-08T16:48:13;97349.69;;;14.20;64.10
60820;BME280;46641;48.904;9.126;2023-01-08T16:53:04;97345.03;;;14.22;63.97
60820;BME280;46641;48.904;9.126;2023-01-08T16:57:54;97330.06;;;14.22;64.26
60820;BME280;46641;48.904;9.126;2023-01-08T17:02:44;97329.25;;;14.22;64.18
60820;BME280;46641;48.904;9.126;2023-01-08T17:07:35;97329.88;;;14.24;63.96
60820;BME280;46641;48.904;9.126;2023-01-08T17:12:25;97319.34;;;14.24;64.29
60820;BME280;46641;48.904;9.126;2023-01-08T17:17:15;97310.66;;;14.23;64.27
60820;BME280;46641;48.904;9.126;2023-01-08T17:22:06;97295.66;;;14.24;64.25
60820;BME280;46641;48.904;9.126;2023-01-08T17:26:56;97280.69;;;14.24;64.18
60820;BME280;46641;48.904;9.126;2023-01-08T17:31:47;97280.69;;;14.24;64.36
60820;BME280;46641;48.904;9.126;2023-01-08T17:36:37;97278.84;;;14.25;64.34
60820;BME280;46641;48.904;9.126;2023-01-08T17:41:28;97277.84;;;14.26;64.36
60820;BME280;46641;48.904;9.126;2023-01-08T17:46:39;97265.06;;;14.23;64.24
60820;BME280;46641;48.904;9.126;2023-01-08T17:51:34;97267.31;;;14.26;64.30
60820;BME280;46641;48.904;9.126;2023-01-08T17:56:24;97267.94;;;14.28;64.06
60820;BME280;46641;48.904;9.126;2023-01-08T18:01:15;97260.03;;;14.28;64.17
60820;BME280;46641;48.904;9.126;2023-01-08T18:06:06;97241.59;;;14.28;64.05
60820;BME280;46641;48.904;9.126;2023-01-08T18:11:01;97230.28;;;14.27;63.88
60820;BME280;46641;48.904;9.126;2023-01-08T18:15:52;97229.47;;;14.27;64.04
60820;BME280;46641;48.904;9.126;2023-01-08T18:20:42;97223.19;;;14.28;64.01
60820;BME280;46641;48.904;9.126;2023-01-08T18:37:03;97213.28;;;14.23;63.78
60820;BME280;46641;48.904;9.126;2023-01-08T18:41:53;97215.91;;;14.23;64.16
60820;BME280;46641;48.904;9.126;2023-01-08T18:47:02;97216.72;;;14.24;64.19
60820;BME280;46641;48.904;9.126;2023-01-08T18:51:52;97209.63;;;14.24;64.28
60820;BME280;46641;48.904;9.126;2023-01-08T18:56:42;97196.47;;;14.24;64.35
60820;BME280;46641;48.904;9.126;2023-01-08T19:01:34;97207.81;;;14.25;64.12
60820;BME280;46641;48.904;9.126;2023-01-08T19:06:24;97190.41;;;14.24;64.12
60820;BME280;46641;48.904;9.126;2023-01-08T19:11:15;97183.50;;;14.23;64.10
60820;BME280;46641;48.904;9.126;2023-01-08T19:16:07;97181.09;;;14.21;64.30
60820;BME280;46641;48.904;9.126;2023-01-08T19:20:58;97173.38;;;14.20;64.30
60820;BME280;46641;48.904;9.126;2023-01-08T19:25:49;97168.13;;;14.20;64.39
60820;BME280;46641;48.904;9.126;2023-01-08T19:30:39;97160.22;;;14.20;64.29
60820;BME280;46641;48.904;9.126;2023-01-08T19:35:31;97146.25;;;14.19;64.50
60820;BME280;46641;48.904;9.126;2023-01-08T19:40:21;97138.38;;;14.19;64.35
60820;BME280;46641;48.904;9.126;2023-01-08T19:45:12;97122.78;;;14.18;64.33
60820;BME280;46641;48.904;9.126;2023-01-08T19:50:03;97122.78;;;14.18;64.36
60820;BME280;46641;48.904;9.126;2023-01-08T19:54:54;97115.91;;;14.17;64.54
60820;BME280;46641;48.904;9.126;2023-01-08T19:59:46;97116.50;;;14.19;64.38
60820;BME280;46641;48.904;9.126;2023-01-08T20:04:36;97121.16;;;14.17;64.43
60820;BME280;46641;48.904;9.126;2023-01-08T20:09:29;97112.69;;;14.15;64.40
60820;BME280;46641;48.904;9.126;2023-01-08T20:14:22;97103.75;;;14.16;64.43
60820;BME280;46641;48.904;9.126;2023-01-08T20:19:12;97102.97;;;14.15;64.54
60820;BME280;46641;48.904;9.126;2023-01-08T20:24:04;97088.38;;;14.13;64.38
60820;BME280;46641;48.904;9.126;2023-01-08T20:28:59;97086.78;;;14.12;64.75
60820;BME280;46641;48.904;9.126;2023-01-08T20:33:49;97084.34;;;14.10;64.57
60820;BME280;46641;48.904;9.126;2023-01-08T20:38:41;97086.16;;;14.10;64.45
60820;BME280;46641;48.904;9.126;2023-01-08T20:43:33;97080.91;;;14.10;64.76
60820;BME280;46641;48.904;9.126;2023-01-08T20:48:24;97073.00;;;14.10;64.77
60820;BME280;46641;48.904;9.126;2023-01-08T20:53:14;97060.88;;;14.09;64.68
60820;BME280;46641;48.904;9.126;2023-01-08T20:58:05;97056.63;;;14.08;64.88
60820;BME280;46641;48.904;9.126;2023-01-08T21:02:55;97055.00;;;14.07;64.78
60820;BME280;46641;48.904;9.126;2023-01-08T21:07:45;97048.13;;;14.06;64.86
60820;BME280;46641;48.904;9.126;2023-01-08T21:12:36;97044.88;;;14.03;64.80
60820;BME280;46641;48.904;9.126;2023-01-08T21:17:26;97039.63;;;14.03;64.94
60820;BME280;46641;48.904;9.126;2023-01-08T21:22:16;97038.00;;;14.02;65.02
60820;BME280;46641;48.904;9.126;2023-01-08T21:27:07;97016.97;;;14.02;64.68
60820;BME280;46641;48.904;9.126;2023-01-08T21:31:57;97005.03;;;14.00;65.06
60820;BME280;46641;48.904;9.126;2023-01-08T21:36:47;97004.03;;;14.01;64.95
60820;BME280;46641;48.904;9.126;2023-01-08T21:41:38;96993.72;;;13.99;65.05
60820;BME280;46641;48.904;9.126;2023-01-08T21:46:47;96988.66;;;13.98;65.15
60820;BME280;46641;48.904;9.126;2023-01-08T21:51:37;96975.72;;;13.96;65.06
60820;BME280;46641;48.904;9.126;2023-01-08T21:56:46;96963.56;;;13.95;65.17
60820;BME280;46641;48.904;9.126;2023-01-08T22:01:36;96957.28;;;13.96;65.01
60820;BME280;46641;48.904;9.126;2023-01-08T22:06:27;96948.59;;;13.96;65.20
60820;BME280;46641;48.904;9.126;2023-01-08T22:11:17;96952.03;;;13.96;65.14
60820;BME280;46641;48.904;9.126;2023-01-08T22:16:08;96941.72;;;13.95;64.80
60820;BME280;46641;48.904;9.126;2023-01-08T22:21:04;96949.63;;;13.95;65.18
60820;BME280;46641;48.904;9.126;2023-01-08T22:25:56;96940.31;;;13.92;65.21
60820;BME280;46641;48.904;9.126;2023-01-08T22:30:46;96949.22;;;13.91;65.20
60820;BME280;46641;48.904;9.126;2023-01-08T22:35:36;96939.72;;;13.90;65.25
60820;BME280;46641;48.904;9.126;2023-01-08T22:40:27;96938.72;;;13.91;65.31
60820;BME280;46641;48.904;9.126;2023-01-08T22:45:17;96919.69;;;13.89;65.42
60820;BME280;46641;48.904;9.126;2023-01-08T22:50:09;96922.72;;;13.86;65.35
60820;BME280;46641;48.904;9.126;2023-01-08T22:54:59;96930.63;;;13.86;65.49
60820;BME280;46641;48.904;9.126;2023-01-08T22:59:50;96924.16;;;13.82;65.46
60820;BME280;46641;48.904;9.126;2023-01-08T23:04:41;96924.56;;;13.86;64.99
60820;BME280;46641;48.904;9.126;2023-01-08T23:09:31;96926.38;;;13.85;65.30
60820;BME280;46641;48.904;9.126;2023-01-08T23:14:21;96916.88;;;13.84;65.39
60820;BME280;46641;48.904;9.126;2023-01-08T23:19:12;96910.81;;;13.84;65.51
60820;BME280;46641;48.904;9.126;2023-01-08T23:24:04;96904.34;;;13.79;65.63
60820;BME280;46641;48.904;9.126;2023-01-08T23:28:56;96903.53;;;13.79;65.34
60820;BME280;46641;48.904;9.126;2023-01-08T23:33:46;96896.69;;;13.78;65.32
60820;BME280;46641;48.904;9.126;2023-01-08T23:38:37;96899.31;;;13.78;65.61
60820;BME280;46641;48.904;9.126;2023-01-08T23:43:27;96895.03;;;13.77;65.57
60820;BME280;46641;48.904;9.126;2023-01-08T23:48:17;96896.69;;;13.78;65.46
60820;BME280;46641;48.904;9.126;2023-01-08T23:53:07;96894.47;;;13.75;65.63
60820;BME280;46641;48.904;9.126;2023-01-08T23:57:58;96891.00;;;13.74;65.53
